createdAt,value
2023-04-15T00:00:46.929Z,82.40
2023-04-15T00:03:34.506Z,82.06
2023-04-15T00:06:20.633Z,81.82
2023-04-15T00:09:05.857Z,81.42
2023-04-15T00:11:51.989Z,83.11
2023-04-15T00:14:36.963Z,82.81
2023-04-15T00:17:22.025Z,82.58
2023-04-15T00:20:07.315Z,81.86
2023-04-15T00:22:52.550Z,80.91
2023-04-15T00:25:38.046Z,82.65
2023-04-15T00:28:23.103Z,83.46
2023-04-15T00:31:08.299Z,84.17
2023-04-15T00:33:53.175Z,83.27
2023-04-15T00:36:38.159Z,79.41
2023-04-15T00:39:23.042Z,81.26
2023-04-15T00:42:08.941Z,82.21
2023-04-15T00:44:53.825Z,80.49
2023-04-15T00:47:42.236Z,82.71
2023-04-15T00:50:27.355Z,82.09
2023-04-15T00:53:12.852Z,80.96
2023-04-15T00:55:58.095Z,82.41
2023-04-15T00:58:42.959Z,81.84
2023-04-15T01:01:29.103Z,82.15
2023-04-15T01:04:15.153Z,83.47
2023-04-15T01:07:00.718Z,82.88
2023-04-15T01:09:46.012Z,84.57
2023-04-15T01:12:33.437Z,84.18
2023-04-15T01:15:18.214Z,84.52
2023-04-15T01:18:03.741Z,85.31
2023-04-15T01:20:48.608Z,83.30
2023-04-15T01:23:37.467Z,83.89
2023-04-15T01:26:23.380Z,84.36
2023-04-15T01:29:08.401Z,84.72
2023-04-15T01:31:55.859Z,86.10
2023-04-15T01:34:40.829Z,86.31
2023-04-15T01:37:27.143Z,87.61
2023-04-15T01:40:12.130Z,87.30
2023-04-15T01:42:57.574Z,87.34
2023-04-15T01:45:42.316Z,86.34
2023-04-15T01:48:27.271Z,86.45
2023-04-15T01:51:12.785Z,86.55
2023-04-15T01:53:58.268Z,87.65
2023-04-15T01:56:43.147Z,88.45
2023-04-15T01:59:28.975Z,88.99
2023-04-15T02:02:14.538Z,88.18
2023-04-15T02:04:59.473Z,88.59
2023-04-15T02:07:45.621Z,89.65
2023-04-15T02:10:31.043Z,89.61
2023-04-15T02:13:16.906Z,89.31
2023-04-15T02:16:02.086Z,88.48
2023-04-15T02:18:48.832Z,88.75
2023-04-15T02:21:35.255Z,88.97
2023-04-15T02:24:20.509Z,89.86
2023-04-15T02:27:05.920Z,88.97
2023-04-15T02:29:51.779Z,88.45
2023-04-15T02:32:37.920Z,89.36
2023-04-15T02:35:26.236Z,87.82
2023-04-15T02:38:12.138Z,88.79
2023-04-15T02:40:57.525Z,88.03
2023-04-15T02:43:42.684Z,88.87
2023-04-15T02:46:27.586Z,88.59
2023-04-15T02:49:13.822Z,88.89
2023-04-15T02:52:00.988Z,89.35
2023-04-15T02:54:46.993Z,89.91
2023-04-15T02:57:31.946Z,89.59
2023-04-15T03:00:17.412Z,89.00
2023-04-15T03:03:06.716Z,89.84
2023-04-15T03:05:52.461Z,88.64
2023-04-15T03:08:37.309Z,88.77
2023-04-15T03:11:22.661Z,89.38
2023-04-15T03:14:07.860Z,88.16
2023-04-15T03:16:52.774Z,87.79
2023-04-15T03:19:37.558Z,89.06
2023-04-15T03:22:22.430Z,90.26
2023-04-15T03:25:07.817Z,88.92
2023-04-15T03:27:52.844Z,90.55
2023-04-15T03:30:38.068Z,90.62
2023-04-15T03:33:23.074Z,89.63
2023-04-15T03:36:08.444Z,88.27
2023-04-15T03:38:53.319Z,90.74
2023-04-15T03:41:38.425Z,90.85
2023-04-15T03:44:23.358Z,90.31
2023-04-15T03:47:08.484Z,90.68
2023-04-15T03:49:54.042Z,90.97
2023-04-15T03:52:38.829Z,91.49
2023-04-15T03:55:23.708Z,91.64
2023-04-15T03:58:09.439Z,91.80
2023-04-15T04:00:54.830Z,92.58
2023-04-15T04:03:39.910Z,92.56
2023-04-15T04:06:25.417Z,92.96
2023-04-15T04:09:10.719Z,91.97
2023-04-15T04:11:56.360Z,92.46
2023-04-15T04:14:41.355Z,92.48
2023-04-15T04:17:27.447Z,93.58
2023-04-15T04:20:12.991Z,94.09
2023-04-15T04:22:58.685Z,93.29
2023-04-15T04:25:43.563Z,93.43
2023-04-15T04:28:28.518Z,93.53
2023-04-15T04:31:13.293Z,94.09
2023-04-15T04:33:58.453Z,93.62
2023-04-15T04:36:43.380Z,92.42
2023-04-15T04:39:28.223Z,92.80
2023-04-15T04:42:13.500Z,93.39
2023-04-15T04:44:58.378Z,93.45
2023-04-15T04:47:43.818Z,93.40
2023-04-15T04:50:28.413Z,93.65
2023-04-15T04:53:13.315Z,93.65
2023-04-15T04:55:58.657Z,93.82
2023-04-15T04:58:43.424Z,92.97
2023-04-15T05:01:28.682Z,93.77
2023-04-15T05:04:13.945Z,93.66
2023-04-15T05:06:59.501Z,94.16
2023-04-15T05:09:44.609Z,94.21
2023-04-15T05:12:29.539Z,93.97
2023-04-15T05:15:14.286Z,93.87
2023-04-15T05:18:00.398Z,94.76
2023-04-15T05:20:45.244Z,94.34
2023-04-15T05:23:30.512Z,94.19
2023-04-15T05:26:16.051Z,94.42
2023-04-15T05:29:01.649Z,94.13
2023-04-15T05:31:47.543Z,94.44
2023-04-15T05:34:32.464Z,94.88
2023-04-15T05:37:17.124Z,94.07
2023-04-15T05:40:02.076Z,94.50
2023-04-15T05:42:46.854Z,93.82
2023-04-15T05:45:31.781Z,93.74
2023-04-15T05:48:16.991Z,93.64
2023-04-15T05:51:02.102Z,93.52
2023-04-15T05:53:47.300Z,93.85
2023-04-15T05:56:32.410Z,93.84
2023-04-15T05:59:18.060Z,94.09
2023-04-15T06:02:06.208Z,94.51
2023-04-15T06:04:51.367Z,94.24
2023-04-15T06:07:37.034Z,94.19
2023-04-15T06:10:21.794Z,93.92
2023-04-15T06:13:08.250Z,94.80
2023-04-15T06:15:53.939Z,94.01
2023-04-15T06:18:39.154Z,94.71
2023-04-15T06:21:24.009Z,94.10
2023-04-15T06:24:09.210Z,93.47
2023-04-15T06:26:54.188Z,93.99
2023-04-15T06:29:39.520Z,94.11
2023-04-15T06:32:24.737Z,94.39
2023-04-15T06:35:09.867Z,94.50
2023-04-15T06:37:54.755Z,93.80
2023-04-15T06:40:39.873Z,93.81
2023-04-15T06:43:26.502Z,93.48
2023-04-15T06:46:11.669Z,94.58
2023-04-15T06:48:56.832Z,93.88
2023-04-15T06:51:42.732Z,93.98
2023-04-15T06:54:28.335Z,94.74
2023-04-15T06:57:13.222Z,93.79
2023-04-15T06:59:58.208Z,94.49
2023-04-15T07:02:44.787Z,94.57
2023-04-15T07:05:30.936Z,94.46
2023-04-15T07:08:16.423Z,94.32
2023-04-15T07:11:01.723Z,94.43
2023-04-15T07:13:47.146Z,94.67
2023-04-15T07:16:32.289Z,93.94
2023-04-15T07:19:18.002Z,94.32
2023-04-15T07:22:04.386Z,94.26
2023-04-15T07:24:49.334Z,94.34
2023-04-15T07:27:34.282Z,94.34
2023-04-15T07:30:19.442Z,94.34
2023-04-15T07:33:04.622Z,94.12
2023-04-15T07:35:49.960Z,94.01
2023-04-15T07:38:34.978Z,94.34
2023-04-15T07:41:20.389Z,93.58
2023-04-15T07:44:05.678Z,94.54
2023-04-15T07:46:51.115Z,95.01
2023-04-15T07:49:36.490Z,94.59
2023-04-15T07:52:21.468Z,93.95
2023-04-15T07:55:11.164Z,93.93
2023-04-15T07:57:56.479Z,93.96
2023-04-15T08:00:41.903Z,94.32
2023-04-15T08:03:27.563Z,93.89
2023-04-15T08:06:13.319Z,93.76
2023-04-15T08:08:58.133Z,94.17
2023-04-15T08:11:43.337Z,93.49
2023-04-15T08:14:29.097Z,93.39
2023-04-15T08:17:13.815Z,93.67
2023-04-15T08:19:59.646Z,94.12
2023-04-15T08:22:44.674Z,93.84
2023-04-15T08:25:30.155Z,93.65
2023-04-15T08:28:16.072Z,93.45
2023-04-15T08:31:02.341Z,93.51
2023-04-15T08:33:47.582Z,93.01
2023-04-15T08:36:33.966Z,92.91
2023-04-15T08:39:21.439Z,92.60
2023-04-15T08:42:10.861Z,92.57
2023-04-15T08:44:56.498Z,92.70
2023-04-15T08:47:48.119Z,93.28
2023-04-15T08:50:33.280Z,92.21
2023-04-15T08:53:20.721Z,93.02
2023-04-15T08:56:13.156Z,93.41
2023-04-15T08:59:03.946Z,93.26
2023-04-15T09:01:54.538Z,92.73
2023-04-15T09:04:41.356Z,93.10
2023-04-15T09:07:27.297Z,92.41
2023-04-15T09:10:15.794Z,93.39
2023-04-15T09:13:02.773Z,93.16
2023-04-15T09:15:49.082Z,93.33
2023-04-15T09:18:36.871Z,93.58
2023-04-15T09:21:23.821Z,93.31
2023-04-15T09:24:08.653Z,93.42
2023-04-15T09:26:55.605Z,93.20
2023-04-15T09:29:41.800Z,92.74
2023-04-15T09:32:27.658Z,92.37
2023-04-15T09:35:13.069Z,92.18
2023-04-15T09:38:09.645Z,92.15
2023-04-15T09:40:55.027Z,92.05
2023-04-15T09:43:40.744Z,91.91
2023-04-15T09:46:46.589Z,91.21
2023-04-15T09:49:31.758Z,91.63
2023-04-15T09:52:17.325Z,91.63
2023-04-15T09:55:02.573Z,90.72
2023-04-15T09:57:48.008Z,91.29
2023-04-15T10:00:33.338Z,91.33
2023-04-15T10:03:30.074Z,91.45
2023-04-15T10:06:16.872Z,91.24
2023-04-15T10:09:02.178Z,90.77
2023-04-15T10:11:49.420Z,90.41
2023-04-15T10:14:38.543Z,90.83
2023-04-15T10:17:27.693Z,90.56
2023-04-15T10:20:16.093Z,91.14
2023-04-15T10:23:02.056Z,90.55
2023-04-15T10:25:47.470Z,90.56
2023-04-15T10:28:32.671Z,90.19
2023-04-15T10:31:19.922Z,90.61
2023-04-15T10:34:06.733Z,90.09
2023-04-15T10:36:54.912Z,90.49
2023-04-15T10:39:42.309Z,89.80
2023-04-15T10:42:33.796Z,90.28
2023-04-15T10:45:19.243Z,90.55
2023-04-15T10:48:08.359Z,91.22
2023-04-15T10:50:57.756Z,91.07
2023-04-15T10:53:43.026Z,90.92
2023-04-15T10:56:31.115Z,90.80
2023-04-15T10:59:16.968Z,90.68
2023-04-15T11:02:04.039Z,92.07
2023-04-15T11:05:00.280Z,91.66
2023-04-15T11:07:54.712Z,91.13
2023-04-15T11:10:39.528Z,90.88
2023-04-15T11:13:27.116Z,90.58
2023-04-15T11:16:15.267Z,90.80
2023-04-15T11:19:01.580Z,90.93
2023-04-15T11:21:47.023Z,90.90
2023-04-15T11:24:33.122Z,91.18
2023-04-15T11:27:23.702Z,90.69
2023-04-15T11:30:22.713Z,90.67
2023-04-15T11:33:11.025Z,91.15
2023-04-15T11:35:55.783Z,91.04
2023-04-15T11:38:46.839Z,91.19
2023-04-15T11:41:31.842Z,90.22
2023-04-15T11:44:18.254Z,90.33
2023-04-15T11:47:22.526Z,90.17
2023-04-15T11:50:23.712Z,90.37
2023-04-15T11:53:11.070Z,90.60
2023-04-15T11:55:56.341Z,90.72
2023-04-15T11:58:44.801Z,89.89
2023-04-15T12:01:39.673Z,89.60
2023-04-15T12:04:25.928Z,89.94
2023-04-15T12:07:12.529Z,89.03
2023-04-15T12:09:58.134Z,88.45
2023-04-15T12:12:43.099Z,88.04
2023-04-15T12:15:28.289Z,87.98
2023-04-15T12:18:19.238Z,86.96
2023-04-15T12:21:11.549Z,87.10
2023-04-15T12:23:58.054Z,85.77
2023-04-15T12:26:49.482Z,85.32
2023-04-15T12:29:40.112Z,84.73
2023-04-15T12:32:25.244Z,84.98
2023-04-15T12:35:10.089Z,84.85
2023-04-15T12:37:54.872Z,84.79
2023-04-15T12:40:39.802Z,85.27
2023-04-15T12:43:25.662Z,84.40
2023-04-15T12:46:10.842Z,83.71
2023-04-15T12:48:57.289Z,84.69
2023-04-15T12:51:42.745Z,84.16
2023-04-15T12:54:29.207Z,84.37
2023-04-15T12:57:15.423Z,84.64
2023-04-15T13:00:00.282Z,84.14
2023-04-15T13:02:45.730Z,84.21
2023-04-15T13:05:30.905Z,82.77
2023-04-15T13:08:16.294Z,82.84
2023-04-15T13:11:01.615Z,82.16
2023-04-15T13:13:47.103Z,82.94
2023-04-15T13:16:32.992Z,83.13
2023-04-15T13:19:18.069Z,82.83
2023-04-15T13:22:03.426Z,82.87
2023-04-15T13:24:48.485Z,82.93
2023-04-15T13:27:33.980Z,82.38
2023-04-15T13:30:19.167Z,82.19
2023-04-15T13:33:05.071Z,81.61
2023-04-15T13:35:50.358Z,80.83
2023-04-15T13:38:35.308Z,81.61
2023-04-15T13:41:21.441Z,81.61
2023-04-15T13:44:07.388Z,81.52
2023-04-15T13:46:52.923Z,81.54
2023-04-15T13:49:38.095Z,81.24
2023-04-15T13:52:23.523Z,81.27
2023-04-15T13:55:19.062Z,81.21
2023-04-15T13:58:06.295Z,81.71
2023-04-15T14:00:51.469Z,81.18
2023-04-15T14:03:38.518Z,81.54
2023-04-15T14:06:23.476Z,81.36
2023-04-15T14:09:08.958Z,81.40
2023-04-15T14:11:53.732Z,81.56
2023-04-15T14:14:40.110Z,81.73
2023-04-15T14:17:25.565Z,80.83
2023-04-15T14:20:10.929Z,81.79
2023-04-15T14:22:55.990Z,80.76
2023-04-15T14:25:41.206Z,80.84
2023-04-15T14:28:26.772Z,81.07
2023-04-15T14:31:11.837Z,81.00
2023-04-15T14:33:59.747Z,80.57
2023-04-15T14:36:45.125Z,80.88
2023-04-15T14:39:30.008Z,79.80
2023-04-15T14:42:14.934Z,79.40
2023-04-15T14:45:03.170Z,78.35
2023-04-15T14:47:49.880Z,78.12
2023-04-15T14:50:35.793Z,78.52
2023-04-15T14:53:24.010Z,78.78
2023-04-15T14:56:11.508Z,78.03
2023-04-15T14:58:56.187Z,77.65
2023-04-15T15:01:41.180Z,77.59
2023-04-15T15:04:27.348Z,78.07
2023-04-15T15:07:12.287Z,77.62
2023-04-15T15:09:57.386Z,76.91
2023-04-15T15:12:42.623Z,77.43
2023-04-15T15:15:29.073Z,77.19
2023-04-15T15:18:14.330Z,76.80
2023-04-15T15:21:01.133Z,77.51
2023-04-15T15:23:48.267Z,77.49
2023-04-15T15:26:33.626Z,77.14
2023-04-15T15:29:18.890Z,77.14
2023-04-15T15:32:04.017Z,77.68
2023-04-15T15:34:49.793Z,77.53
2023-04-15T15:37:35.921Z,77.69
2023-04-15T15:40:21.691Z,78.21
2023-04-15T15:43:06.951Z,77.41
2023-04-15T15:45:55.232Z,77.81
2023-04-15T15:48:43.346Z,77.91
2023-04-15T15:51:32.138Z,78.04
2023-04-15T15:54:18.719Z,78.16
2023-04-15T15:57:03.964Z,78.03
2023-04-15T15:59:51.135Z,78.52
2023-04-15T16:03:04.265Z,78.40
2023-04-15T16:05:42.618Z,78.50
2023-04-15T16:08:27.574Z,78.91
2023-04-15T16:11:14.495Z,78.69
2023-04-15T16:13:59.407Z,78.88
2023-04-15T16:16:45.887Z,78.91
2023-04-15T16:19:31.273Z,78.78
2023-04-15T16:22:22.313Z,79.18
2023-04-15T16:25:15.034Z,78.34
2023-04-15T16:28:08.344Z,77.83
2023-04-15T16:30:57.981Z,77.78
2023-04-15T16:33:44.272Z,78.31
2023-04-15T16:36:31.755Z,78.54
2023-04-15T16:39:16.923Z,78.77
2023-04-15T16:42:04.144Z,78.90
2023-04-15T16:44:51.460Z,78.63
2023-04-15T16:47:36.632Z,79.76
2023-04-15T16:50:21.420Z,79.36
2023-04-15T16:53:07.544Z,79.31
2023-04-15T16:55:53.286Z,79.75
2023-04-15T16:58:39.504Z,79.57
2023-04-15T17:01:24.923Z,80.12
2023-04-15T17:04:13.914Z,80.06
2023-04-15T17:06:58.909Z,79.72
2023-04-15T17:09:44.427Z,79.41
2023-04-15T17:12:30.296Z,79.02
2023-04-15T17:15:18.276Z,79.87
2023-04-15T17:18:06.009Z,79.89
2023-04-15T17:20:50.772Z,80.27
2023-04-15T17:23:37.169Z,80.31
2023-04-15T17:26:23.696Z,80.57
2023-04-15T17:29:09.579Z,80.94
2023-04-15T17:31:55.147Z,81.58
2023-04-15T17:34:49.951Z,81.62
2023-04-15T17:37:36.728Z,81.74
2023-04-15T17:40:23.388Z,82.02
2023-04-15T17:43:12.715Z,81.66
2023-04-15T17:45:58.727Z,81.80
2023-04-15T17:48:43.766Z,81.66
2023-04-15T17:51:31.890Z,80.89
2023-04-15T17:54:19.087Z,81.28
2023-04-15T17:57:04.309Z,81.43
2023-04-15T17:59:49.769Z,81.45
2023-04-15T18:02:37.095Z,81.52
2023-04-15T18:05:22.440Z,81.99
2023-04-15T18:08:07.424Z,81.31
2023-04-15T18:10:53.119Z,81.52
2023-04-15T18:13:38.088Z,81.04
2023-04-15T18:16:22.991Z,80.57
2023-04-15T18:19:08.054Z,81.07
2023-04-15T18:21:53.459Z,81.16
2023-04-15T18:24:42.095Z,80.58
2023-04-15T18:27:27.444Z,80.72
2023-04-15T18:30:14.057Z,80.26
2023-04-15T18:33:00.650Z,80.13
2023-04-15T18:35:47.535Z,80.24
2023-04-15T18:38:33.618Z,80.11
2023-04-15T18:41:26.006Z,79.89
2023-04-15T18:44:13.098Z,80.20
2023-04-15T18:46:58.644Z,80.12
2023-04-15T18:49:44.016Z,80.07
2023-04-15T18:52:30.276Z,80.09
2023-04-15T18:55:19.196Z,80.06
2023-04-15T18:58:10.050Z,79.66
2023-04-15T19:00:56.287Z,79.74
2023-04-15T19:03:43.871Z,80.25
2023-04-15T19:09:29.042Z,79.64
2023-04-15T19:12:19.535Z,80.28
2023-04-15T19:15:05.405Z,80.05
2023-04-15T19:17:50.392Z,79.89
2023-04-15T19:20:39.974Z,79.03
2023-04-15T19:23:27.025Z,79.23
2023-04-15T19:26:14.926Z,79.67
2023-04-15T19:28:59.766Z,80.08
2023-04-15T19:31:46.782Z,80.95
2023-04-15T19:34:31.925Z,81.22
2023-04-15T19:37:17.608Z,81.05
2023-04-15T19:40:03.300Z,81.37
2023-04-15T19:42:49.831Z,81.26
2023-04-15T19:45:37.252Z,81.30
2023-04-15T19:48:24.971Z,81.21
2023-04-15T19:51:09.906Z,81.33
2023-04-15T19:54:00.846Z,81.17
2023-04-15T19:56:47.875Z,81.43
2023-04-15T19:59:33.398Z,81.44
2023-04-15T20:02:18.693Z,81.54
2023-04-15T20:05:04.739Z,81.63
2023-04-15T20:07:52.918Z,82.21
2023-04-15T20:10:38.279Z,82.17
2023-04-15T20:13:23.505Z,81.79
2023-04-15T20:16:13.286Z,82.12
2023-04-15T20:19:08.416Z,82.30
2023-04-15T20:21:54.252Z,82.25
2023-04-15T20:24:39.065Z,82.41
2023-04-15T20:27:23.957Z,82.64
2023-04-15T20:30:13.998Z,82.69
2023-04-15T20:32:59.754Z,82.99
2023-04-15T20:35:47.084Z,83.36
2023-04-15T20:38:32.258Z,83.34
2023-04-15T20:41:17.468Z,83.75
2023-04-15T20:44:10.253Z,84.55
2023-04-15T20:46:56.326Z,84.41
2023-04-15T20:49:41.297Z,85.19
2023-04-15T20:52:26.329Z,85.16
2023-04-15T20:55:13.184Z,85.47
2023-04-15T20:57:59.284Z,85.49
2023-04-15T21:00:45.284Z,85.85
2023-04-15T21:03:30.733Z,85.55
2023-04-15T21:06:16.229Z,85.84
2023-04-15T21:09:01.193Z,85.60
2023-04-15T21:14:39.507Z,85.50
2023-04-15T21:17:24.858Z,85.69
2023-04-15T21:20:13.388Z,86.33
2023-04-15T21:23:00.814Z,86.25
2023-04-15T21:25:45.881Z,86.63
2023-04-15T21:28:32.178Z,86.30
2023-04-15T21:31:18.535Z,86.23
2023-04-15T21:34:07.834Z,85.65
2023-04-15T21:36:55.165Z,86.29
2023-04-15T21:39:40.548Z,86.20
2023-04-15T21:42:26.422Z,86.31
2023-04-15T21:45:11.491Z,86.43
2023-04-15T21:48:07.619Z,87.04
2023-04-15T21:51:01.564Z,86.81
2023-04-15T21:53:49.994Z,87.85
2023-04-15T21:56:35.279Z,88.33
2023-04-15T21:59:21.735Z,88.23
2023-04-15T22:02:06.921Z,88.18
2023-04-15T22:04:52.233Z,88.28
2023-04-15T22:07:37.598Z,88.39
2023-04-15T22:10:23.041Z,88.75
2023-04-15T22:13:11.304Z,89.09
2023-04-15T22:15:56.906Z,89.10
2023-04-15T22:18:41.705Z,89.80
2023-04-15T22:21:27.229Z,90.13
2023-04-15T22:24:33.960Z,90.67
2023-04-15T22:27:17.747Z,90.77
2023-04-15T22:30:05.238Z,90.85
2023-04-15T22:32:50.627Z,90.74
2023-04-15T22:35:38.507Z,90.15
2023-04-15T22:38:24.490Z,90.42
2023-04-15T22:41:09.484Z,90.31
2023-04-15T22:43:54.321Z,90.03
2023-04-15T22:46:39.394Z,90.16
2023-04-15T22:49:26.291Z,90.48
2023-04-15T22:52:17.115Z,90.61
2023-04-15T22:55:08.932Z,90.57
2023-04-15T22:57:54.322Z,91.03
2023-04-15T23:00:39.333Z,91.16
2023-04-15T23:03:24.816Z,91.08
2023-04-15T23:06:10.255Z,90.88
2023-04-15T23:08:55.807Z,91.14
2023-04-15T23:11:41.157Z,91.55
2023-04-15T23:14:27.910Z,91.62
2023-04-15T23:17:13.734Z,90.53
2023-04-15T23:19:58.571Z,91.47
2023-04-15T23:22:43.632Z,92.40
2023-04-15T23:25:28.618Z,91.79
2023-04-15T23:28:14.933Z,92.49
2023-04-15T23:31:00.708Z,92.83
2023-04-15T23:33:45.645Z,92.90
2023-04-15T23:36:31.850Z,92.74
2023-04-15T23:39:16.963Z,92.74
2023-04-15T23:42:01.935Z,92.60
2023-04-15T23:44:46.707Z,92.51
2023-04-15T23:47:31.583Z,92.38
2023-04-15T23:50:16.386Z,92.69
2023-04-15T23:53:02.722Z,92.14
2023-04-15T23:55:48.605Z,92.14
2023-04-15T23:58:34.590Z,92.65
